Time;durP1;ratioP1;P1;durP2;ratioP2;P2;SDS_P1;SDS_P2;PMS_P1;PMS_P2;Temp;Humidity;BMP_temperature;BMP_pressure;BME280_temperature;BME280_humidity;BME280_pressure;Samples;Min_cycle;Max_cycle;Signal;HPM_P1;HPM_P2
2022/03/24 00:01:39;;;;;;;63.22;42.17;;;5.70;99.90;;;;;;4918783;29;20059;-75
2022/03/24 00:04:04;;;;;;;59.67;40.45;;;5.70;99.90;;;;;;4918787;29;20048;-75
2022/03/24 00:06:30;;;;;;;60.80;41.72;;;5.60;99.90;;;;;;4934959;29;20196;-76
2022/03/24 00:08:56;;;;;;;64.82;42.95;;;5.60;99.90;;;;;;4903771;29;20055;-74
2022/03/24 00:11:21;;;;;;;70.10;44.42;;;5.50;99.90;;;;;;4935453;29;20055;-76
2022/03/24 00:13:50;;;;;;;70.53;43.47;;;5.50;99.90;;;;;;4919053;29;20046;-74
2022/03/24 00:16:17;;;;;;;69.65;44.30;;;5.40;99.90;;;;;;4918574;29;20063;-73
2022/03/24 00:18:43;;;;;;;74.57;47.80;;;5.40;99.90;;;;;;4919617;29;20043;-74
2022/03/24 00:21:09;;;;;;;70.07;46.80;;;5.40;99.90;;;;;;4920005;29;20134;-75
2022/03/24 00:23:35;;;;;;;76.65;49.10;;;5.40;99.90;;;;;;4954728;28;20137;-77
2022/03/24 00:26:03;;;;;;;78.20;49.25;;;5.30;99.90;;;;;;4977518;28;20042;-75
2022/03/24 00:28:31;;;;;;;72.97;47.38;;;5.30;99.90;;;;;;4982403;28;20362;-75
2022/03/24 00:30:56;;;;;;;83.38;51.28;;;5.20;99.90;;;;;;4989209;28;20050;-74
2022/03/24 00:33:22;;;;;;;76.10;51.30;;;5.20;99.90;;;;;;4982159;28;20057;-77
2022/03/24 00:35:48;;;;;;;74.45;49.78;;;5.20;99.90;;;;;;4967870;28;20575;-73
2022/03/24 00:38:14;;;;;;;76.22;50.78;;;5.20;99.90;;;;;;4977861;28;20125;-77
2022/03/24 00:40:39;;;;;;;77.18;50.90;;;5.10;99.90;;;;;;4958786;28;20046;-74
2022/03/24 00:43:05;;;;;;;72.47;47.90;;;5.20;99.90;;;;;;4974127;28;20186;-76
2022/03/24 00:45:31;;;;;;;74.03;49.08;;;5.20;99.90;;;;;;4989939;28;20046;-74
2022/03/24 00:47:56;;;;;;;75.93;48.30;;;5.20;99.90;;;;;;4968738;28;20050;-74
2022/03/24 00:50:22;;;;;;;70.25;47.35;;;5.10;99.90;;;;;;4961560;28;20046;-74
2022/03/24 00:52:48;;;;;;;76.40;48.20;;;5.10;99.90;;;;;;4963805;28;20046;-75
2022/03/24 00:55:16;;;;;;;72.47;46.08;;;5.10;99.90;;;;;;4963755;28;20062;-73
2022/03/24 00:57:46;;;;;;;66.97;46.35;;;5.10;99.90;;;;;;4980857;28;20117;-75
2022/03/24 01:00:15;;;;;;;68.70;46.13;;;5.00;99.90;;;;;;4981107;28;20038;-75
2022/03/24 01:02:41;;;;;;;79.72;49.35;;;5.00;99.90;;;;;;4981012;28;20098;-75
2022/03/24 01:05:08;;;;;;;70.55;47.20;;;5.00;99.90;;;;;;4999262;28;20074;-75
2022/03/24 01:07:36;;;;;;;75.50;45.88;;;4.90;99.90;;;;;;4972307;28;20042;-76
2022/03/24 01:10:03;;;;;;;78.80;48.33;;;4.90;99.90;;;;;;4980780;28;20074;-73
2022/03/24 01:12:29;;;;;;;74.40;48.88;;;4.90;99.90;;;;;;4998457;28;20047;-74
2022/03/24 01:14:56;;;;;;;76.47;47.35;;;4.90;99.90;;;;;;4998455;28;20133;-74
2022/03/24 01:17:23;;;;;;;76.80;47.78;;;4.90;99.90;;;;;;4980128;28;20057;-75
2022/03/24 01:19:49;;;;;;;76.00;48.50;;;4.90;99.90;;;;;;4997781;28;20112;-74
2022/03/24 01:22:15;;;;;;;75.80;48.38;;;4.80;99.90;;;;;;4998573;28;20054;-76
2022/03/24 01:24:40;;;;;;;81.22;49.30;;;4.80;99.90;;;;;;4997334;28;20339;-73
2022/03/24 01:27:06;;;;;;;78.97;49.75;;;4.80;99.90;;;;;;4979925;28;20381;-74
2022/03/24 01:29:32;;;;;;;81.30;49.22;;;4.80;99.90;;;;;;4985684;28;20043;-74
2022/03/24 01:31:59;;;;;;;78.32;49.83;;;4.80;99.90;;;;;;4981150;28;20046;-75
2022/03/24 01:34:25;;;;;;;74.55;49.90;;;4.70;99.90;;;;;;4998217;28;20133;-75
2022/03/24 01:36:51;;;;;;;80.60;49.28;;;4.70;99.90;;;;;;4980800;28;20522;-77
2022/03/24 01:39:16;;;;;;;83.85;50.47;;;4.70;99.90;;;;;;4998034;28;20030;-74
2022/03/24 01:41:45;;;;;;;75.53;48.15;;;4.70;99.90;;;;;;4977249;28;20034;-74
2022/03/24 01:44:17;;;;;;;70.38;47.08;;;4.70;99.90;;;;;;4991644;28;20046;-75
2022/03/24 01:47:06;;;;;;;78.05;47.70;;;4.60;99.90;;;;;;4978376;28;20344;-77
2022/03/24 01:49:37;;;;;;;75.80;49.10;;;4.60;99.90;;;;;;4996032;28;20046;-74
2022/03/24 01:52:05;;;;;;;84.93;51.55;;;4.60;99.90;;;;;;4961686;28;20050;-74
2022/03/24 01:54:32;;;;;;;75.68;49.65;;;4.50;99.90;;;;;;4967278;28;20046;-75
2022/03/24 01:56:59;;;;;;;82.55;49.65;;;4.50;99.90;;;;;;4961063;28;20054;-74
2022/03/24 01:59:25;;;;;;;80.05;49.15;;;4.50;99.90;;;;;;4994376;28;20047;-74
2022/03/24 02:01:51;;;;;;;76.25;50.53;;;4.40;99.90;;;;;;4976644;28;20034;-75
2022/03/24 02:04:19;;;;;;;83.65;51.40;;;4.50;99.90;;;;;;4985870;28;20463;-75
2022/03/24 02:06:45;;;;;;;84.70;52.13;;;4.40;99.90;;;;;;4973496;28;20175;-74
2022/03/24 02:09:12;;;;;;;84.38;50.58;;;4.30;99.90;;;;;;4979788;28;20069;-75
2022/03/24 02:11:37;;;;;;;79.65;50.97;;;4.30;99.90;;;;;;4980209;28;20479;-75
2022/03/24 02:14:04;;;;;;;79.65;50.60;;;4.30;99.90;;;;;;4964362;28;20053;-74
2022/03/24 02:16:34;;;;;;;81.95;50.28;;;4.20;99.90;;;;;;4996410;28;20054;-75
2022/03/24 02:19:09;;;;;;;77.75;49.50;;;4.20;99.90;;;;;;4979603;28;20116;-76
2022/03/24 02:21:35;;;;;;;81.03;51.08;;;4.30;99.90;;;;;;4997192;28;20055;-75
2022/03/24 02:24:00;;;;;;;78.97;50.15;;;4.20;99.90;;;;;;4972715;28;20065;-75
2022/03/24 02:26:27;;;;;;;81.53;50.97;;;4.20;99.90;;;;;;4979691;28;20050;-75
2022/03/24 02:28:54;;;;;;;87.60;52.63;;;4.10;99.90;;;;;;4964833;28;20042;-76
2022/03/24 02:31:20;;;;;;;87.63;52.90;;;4.10;99.90;;;;;;4979897;28;20054;-76
2022/03/24 02:33:46;;;;;;;82.85;53.35;;;4.10;99.90;;;;;;4979807;28;20046;-77
2022/03/24 02:36:11;;;;;;;81.53;52.70;;;4.10;99.90;;;;;;4976954;28;20097;-74
2022/03/24 02:38:37;;;;;;;89.40;54.17;;;4.10;99.90;;;;;;4977387;28;20462;-75
2022/03/24 02:41:02;;;;;;;79.13;49.10;;;4.00;99.90;;;;;;4988225;28;20050;-76
2022/03/24 02:43:28;;;;;;;85.90;51.97;;;4.00;99.90;;;;;;4979802;28;20125;-74
2022/03/24 02:45:54;;;;;;;83.18;50.97;;;4.00;99.90;;;;;;4979472;28;20042;-76
2022/03/24 02:48:21;;;;;;;86.55;54.30;;;4.00;99.90;;;;;;4971660;28;20046;-75
2022/03/24 02:50:48;;;;;;;84.18;54.05;;;4.00;99.90;;;;;;4993804;28;20061;-74
2022/03/24 02:53:14;;;;;;;86.53;52.30;;;4.00;99.90;;;;;;4987846;28;20046;-76
2022/03/24 02:55:40;;;;;;;88.68;54.25;;;4.00;99.90;;;;;;4993605;28;20147;-76
2022/03/24 02:58:06;;;;;;;102.47;57.92;;;4.00;99.90;;;;;;4979608;28;20050;-73
2022/03/24 03:00:32;;;;;;;100.15;57.88;;;4.00;99.90;;;;;;4978095;28;20050;-74
2022/03/24 03:02:57;;;;;;;91.50;55.47;;;4.00;99.90;;;;;;4983992;28;20042;-75
2022/03/24 03:05:23;;;;;;;94.75;57.33;;;3.90;99.90;;;;;;4976120;28;20525;-75
2022/03/24 03:07:51;;;;;;;83.43;53.13;;;3.90;99.90;;;;;;4996525;28;20046;-74
2022/03/24 03:10:17;;;;;;;86.40;53.58;;;3.80;99.90;;;;;;4996087;28;20108;-76
2022/03/24 03:12:44;;;;;;;85.72;52.95;;;3.80;99.90;;;;;;4983076;28;20530;-75
2022/03/24 03:15:10;;;;;;;93.00;54.13;;;3.80;99.90;;;;;;4995811;28;20367;-74
2022/03/24 03:17:36;;;;;;;90.93;54.63;;;3.70;99.90;;;;;;4971106;28;20056;-74
2022/03/24 03:20:04;;;;;;;86.43;54.30;;;3.70;99.90;;;;;;5004653;28;20042;-76
2022/03/24 03:22:29;;;;;;;85.70;52.33;;;3.70;99.90;;;;;;4986105;28;20049;-74
2022/03/24 03:24:55;;;;;;;91.70;56.30;;;3.70;99.90;;;;;;4973111;28;20046;-74
2022/03/24 03:27:21;;;;;;;84.20;52.38;;;3.70;99.90;;;;;;4978533;28;20034;-75
2022/03/24 03:29:47;;;;;;;87.95;52.53;;;3.60;99.90;;;;;;4978992;28;20050;-76
2022/03/24 03:32:13;;;;;;;86.90;53.22;;;3.60;99.90;;;;;;4982925;28;20459;-74
2022/03/24 03:34:41;;;;;;;82.35;50.58;;;3.60;99.90;;;;;;4979024;28;20045;-77
2022/03/24 03:37:07;;;;;;;80.00;49.40;;;3.50;99.90;;;;;;4994432;28;20081;-76
2022/03/24 03:39:34;;;;;;;80.38;49.33;;;3.50;99.90;;;;;;4978269;28;20074;-75
2022/03/24 03:42:00;;;;;;;83.63;49.97;;;3.50;99.90;;;;;;4978731;28;20046;-76
2022/03/24 03:44:26;;;;;;;82.10;50.25;;;3.50;99.90;;;;;;4978197;28;20030;-75
2022/03/24 03:46:52;;;;;;;78.05;48.58;;;3.50;99.90;;;;;;4977168;28;20150;-75
2022/03/24 03:49:21;;;;;;;76.38;49.40;;;3.40;99.90;;;;;;4994895;28;20325;-76
2022/03/24 03:51:47;;;;;;;86.63;50.92;;;3.40;99.90;;;;;;4995509;28;20129;-74
2022/03/24 03:54:14;;;;;;;83.95;49.80;;;3.30;99.90;;;;;;4978520;28;20377;-76
2022/03/24 03:56:40;;;;;;;84.30;50.00;;;3.30;99.90;;;;;;4977948;28;20030;-76
2022/03/24 03:59:06;;;;;;;76.40;47.03;;;3.70;99.90;;;;;;4978330;28;20069;-75
2022/03/24 04:01:32;;;;;;;86.47;52.00;;;3.30;99.90;;;;;;4977806;28;20030;-76
2022/03/24 04:03:58;;;;;;;81.78;52.38;;;3.30;99.90;;;;;;4978179;28;20065;-75
2022/03/24 04:06:24;;;;;;;88.30;51.95;;;3.30;99.90;;;;;;4995663;28;20046;-75
2022/03/24 04:08:50;;;;;;;80.57;49.92;;;3.30;99.90;;;;;;4992902;28;20050;-74
2022/03/24 04:11:16;;;;;;;85.03;52.83;;;3.30;99.90;;;;;;4978112;28;20043;-76
2022/03/24 04:13:42;;;;;;;83.82;51.25;;;3.20;99.90;;;;;;4961901;28;20046;-77
2022/03/24 04:16:13;;;;;;;81.78;49.97;;;3.20;99.90;;;;;;4977249;28;20073;-75
2022/03/24 04:18:40;;;;;;;80.22;50.15;;;3.20;99.90;;;;;;4977453;28;20148;-76
2022/03/24 04:21:07;;;;;;;83.35;51.35;;;3.20;99.90;;;;;;4995049;28;20038;-77
2022/03/24 04:23:34;;;;;;;84.97;47.67;;;3.20;99.90;;;;;;4977037;28;20049;-74
2022/03/24 04:26:00;;;;;;;79.88;49.47;;;3.20;99.90;;;;;;4961553;28;20046;-75
2022/03/24 04:28:26;;;;;;;77.75;48.95;;;3.10;99.90;;;;;;4994828;28;20109;-74
2022/03/24 04:30:51;;;;;;;76.88;47.45;;;3.10;99.90;;;;;;4994826;28;20042;-77
2022/03/24 04:33:17;;;;;;;78.60;48.75;;;3.10;99.90;;;;;;4961454;28;20063;-76
2022/03/24 04:35:42;;;;;;;85.68;51.80;;;3.10;99.90;;;;;;4995048;28;20142;-75
2022/03/24 04:38:08;;;;;;;83.40;50.40;;;3.10;99.90;;;;;;4956724;28;20047;-74
2022/03/24 04:40:34;;;;;;;83.93;49.53;;;3.00;99.90;;;;;;4978386;28;20046;-75
2022/03/24 04:43:00;;;;;;;81.85;48.53;;;3.00;99.90;;;;;;4977461;28;20053;-75
2022/03/24 04:45:32;;;;;;;88.70;52.25;;;3.30;99.90;;;;;;4972988;28;20034;-74
2022/03/24 04:47:58;;;;;;;86.93;52.75;;;3.00;99.90;;;;;;4971223;28;20050;-75
2022/03/24 04:50:24;;;;;;;97.70;53.35;;;3.00;99.90;;;;;;4972508;28;20149;-75
2022/03/24 04:52:50;;;;;;;83.63;51.15;;;3.70;99.90;;;;;;4977838;28;20046;-76
2022/03/24 04:55:16;;;;;;;88.10;53.08;;;3.00;99.90;;;;;;4972552;28;20510;-76
2022/03/24 04:57:42;;;;;;;90.50;52.35;;;2.90;99.90;;;;;;4990289;28;20035;-75
2022/03/24 05:00:10;;;;;;;88.05;52.28;;;2.90;99.90;;;;;;4964796;28;20046;-75
2022/03/24 05:02:36;;;;;;;86.93;51.35;;;2.90;99.90;;;;;;4967804;28;20034;-73
2022/03/24 05:05:02;;;;;;;93.13;54.83;;;3.70;99.90;;;;;;4982174;28;20071;-75
2022/03/24 05:07:28;;;;;;;88.80;52.95;;;2.90;99.90;;;;;;4982410;28;20039;-76
2022/03/24 05:09:54;;;;;;;95.03;55.28;;;2.90;99.90;;;;;;4961934;28;20048;-76
2022/03/24 05:12:20;;;;;;;92.10;53.92;;;2.90;99.90;;;;;;4994268;28;20042;-75
2022/03/24 05:14:46;;;;;;;91.57;52.90;;;2.90;99.90;;;;;;4978885;28;20140;-75
2022/03/24 05:17:12;;;;;;;92.25;52.45;;;2.90;99.90;;;;;;4961674;28;20104;-75
2022/03/24 05:19:39;;;;;;;91.07;51.63;;;2.90;99.90;;;;;;4961754;28;20134;-75
2022/03/24 05:22:05;;;;;;;91.28;52.92;;;2.80;99.90;;;;;;4977965;28;20109;-76
2022/03/24 05:24:31;;;;;;;84.80;52.42;;;3.30;99.90;;;;;;4977562;28;20053;-73
2022/03/24 05:26:57;;;;;;;82.07;49.53;;;2.80;99.90;;;;;;4995090;28;20293;-74
2022/03/24 05:29:23;;;;;;;89.93;52.22;;;2.80;99.90;;;;;;4976972;28;20065;-73
2022/03/24 05:31:49;;;;;;;89.97;49.13;;;2.80;99.90;;;;;;4994719;28;20045;-74
2022/03/24 05:34:14;;;;;;;87.05;52.20;;;2.80;99.90;;;;;;4978132;28;20050;-76
2022/03/24 05:36:40;;;;;;;96.30;53.05;;;2.80;99.90;;;;;;4964573;28;20463;-75
2022/03/24 05:39:06;;;;;;;83.38;50.97;;;2.80;99.90;;;;;;4981233;28;20038;-75
2022/03/24 05:41:31;;;;;;;81.38;49.78;;;2.80;99.90;;;;;;4998563;28;20081;-76
2022/03/24 05:44:03;;;;;;;85.78;51.55;;;2.80;99.90;;;;;;4998415;28;20121;-74
2022/03/24 05:46:36;;;;;;;80.75;48.75;;;2.80;99.90;;;;;;4980855;28;20042;-76
2022/03/24 05:49:05;;;;;;;78.95;48.60;;;2.80;99.90;;;;;;4980985;28;20046;-76
2022/03/24 05:51:31;;;;;;;84.15;49.72;;;2.80;99.90;;;;;;4998227;28;20054;-74
2022/03/24 05:53:57;;;;;;;82.35;52.33;;;2.80;99.90;;;;;;4995738;28;20497;-73
2022/03/24 05:56:22;;;;;;;88.85;52.40;;;2.90;99.90;;;;;;4973499;28;20038;-74
2022/03/24 05:58:48;;;;;;;80.15;48.83;;;2.90;99.90;;;;;;4981001;28;20482;-75
2022/03/24 06:01:15;;;;;;;79.43;48.33;;;3.70;99.90;;;;;;4960275;28;20046;-72
2022/03/24 06:03:44;;;;;;;84.22;51.00;;;3.00;99.90;;;;;;4976416;28;20070;-74
2022/03/24 06:06:10;;;;;;;88.57;51.58;;;3.00;99.90;;;;;;4976535;28;20071;-77
2022/03/24 06:08:36;;;;;;;84.90;50.22;;;3.00;99.90;;;;;;4976627;28;20240;-74
2022/03/24 06:11:02;;;;;;;96.72;52.60;;;3.10;99.90;;;;;;4976210;28;20047;-75
2022/03/24 06:13:27;;;;;;;89.15;50.35;;;3.20;99.90;;;;;;4960307;28;20158;-74
2022/03/24 06:15:54;;;;;;;85.72;51.00;;;3.20;99.90;;;;;;4960745;28;20206;-74
2022/03/24 06:18:20;;;;;;;84.85;50.38;;;3.60;99.90;;;;;;4976482;28;20403;-75
2022/03/24 06:20:46;;;;;;;87.43;51.22;;;3.30;99.90;;;;;;4960216;28;20051;-76
2022/03/24 06:23:12;;;;;;;84.50;50.92;;;3.40;99.90;;;;;;4976115;28;20043;-74
2022/03/24 06:25:38;;;;;;;89.13;52.13;;;3.50;99.90;;;;;;4975480;28;20058;-77
2022/03/24 06:28:06;;;;;;;85.20;52.75;;;3.90;99.90;;;;;;4975723;28;20066;-77
2022/03/24 06:30:32;;;;;;;86.43;52.03;;;3.60;99.90;;;;;;4959785;28;20147;-76
2022/03/24 06:32:58;;;;;;;86.38;52.58;;;3.70;99.90;;;;;;4976915;28;20058;-75
2022/03/24 06:35:24;;;;;;;79.40;49.65;;;3.80;99.90;;;;;;4997602;28;20034;-77
2022/03/24 06:37:51;;;;;;;83.88;51.65;;;3.90;99.90;;;;;;4997651;28;20054;-76
2022/03/24 06:40:18;;;;;;;91.57;53.55;;;4.00;99.90;;;;;;4979947;28;20470;-75
2022/03/24 06:42:43;;;;;;;88.72;52.22;;;4.20;99.90;;;;;;4980297;28;20058;-75
2022/03/24 06:45:11;;;;;;;81.40;49.70;;;4.20;99.90;;;;;;4980370;28;20047;-76
2022/03/24 06:47:39;;;;;;;85.32;53.80;;;4.30;99.90;;;;;;4979532;28;20423;-75
2022/03/24 06:50:05;;;;;;;88.28;51.85;;;4.50;99.90;;;;;;4997438;28;20113;-75
2022/03/24 06:52:31;;;;;;;86.13;52.58;;;4.60;99.90;;;;;;4979738;28;20042;-77
2022/03/24 06:54:56;;;;;;;88.10;52.10;;;4.70;99.90;;;;;;4986521;28;20130;-76
2022/03/24 06:57:22;;;;;;;88.45;52.40;;;4.90;99.90;;;;;;4977365;28;20039;-75
2022/03/24 06:59:48;;;;;;;83.82;53.05;;;5.00;99.90;;;;;;4960467;28;20042;-76
2022/03/24 07:02:13;;;;;;;85.47;52.13;;;5.20;99.90;;;;;;4962393;28;20106;-74
2022/03/24 07:04:39;;;;;;;78.10;50.95;;;5.30;99.90;;;;;;4979976;28;20082;-75
2022/03/24 07:07:04;;;;;;;79.80;52.40;;;5.50;99.90;;;;;;4997142;28;20057;-74
2022/03/24 07:09:31;;;;;;;88.72;53.03;;;5.60;99.90;;;;;;4979515;28;20046;-74
2022/03/24 07:11:57;;;;;;;91.45;56.40;;;5.80;99.90;;;;;;4979416;28;20054;-75
2022/03/24 07:14:23;;;;;;;89.82;53.33;;;5.90;99.90;;;;;;4963676;28;20077;-76
2022/03/24 07:16:49;;;;;;;90.47;54.53;;;6.00;99.90;;;;;;4979831;28;20193;-77
2022/03/24 07:19:15;;;;;;;85.30;54.33;;;6.50;99.90;;;;;;4979442;28;20101;-77
2022/03/24 07:21:41;;;;;;;84.20;53.92;;;6.30;99.90;;;;;;4996528;28;20038;-74
2022/03/24 07:24:06;;;;;;;84.47;54.90;;;6.40;99.90;;;;;;4979592;28;20082;-76
2022/03/24 07:26:32;;;;;;;89.05;55.67;;;6.60;99.90;;;;;;4979735;28;20042;-77
2022/03/24 07:28:58;;;;;;;94.70;57.33;;;6.80;99.90;;;;;;4979389;28;20378;-76
2022/03/24 07:31:24;;;;;;;83.32;53.35;;;6.90;99.90;;;;;;4996467;28;20410;-76
2022/03/24 07:33:53;;;;;;;83.40;52.33;;;7.40;99.90;;;;;;4981973;28;20046;-74
2022/03/24 07:36:23;;;;;;;91.68;56.58;;;7.20;99.90;;;;;;4959495;28;20047;-76
2022/03/24 07:38:54;;;;;;;85.10;55.80;;;7.60;99.90;;;;;;4976690;28;20094;-75
2022/03/24 07:41:19;;;;;;;86.40;55.47;;;7.50;99.90;;;;;;4977002;28;20363;-75
2022/03/24 07:43:45;;;;;;;84.90;56.40;;;7.60;99.90;;;;;;4959700;28;20046;-75
2022/03/24 07:46:11;;;;;;;94.22;56.80;;;7.70;99.90;;;;;;4943794;28;20047;-76
2022/03/24 07:48:38;;;;;;;87.72;54.65;;;7.90;99.90;;;;;;4976717;28;20059;-74
2022/03/24 07:51:05;;;;;;;90.70;54.47;;;8.40;99.90;;;;;;4976625;28;20058;-74
2022/03/24 07:53:50;;;;;;;83.65;50.85;;;8.20;99.90;;;;;;4960324;28;20043;-74
2022/03/24 07:56:17;;;;;;;81.75;52.35;;;8.30;99.90;;;;;;4960071;28;20414;-74
2022/03/24 07:58:43;;;;;;;75.72;51.30;;;8.40;99.90;;;;;;4976204;28;20051;-74
2022/03/24 08:01:10;;;;;;;78.55;51.00;;;8.40;99.90;;;;;;4959246;28;20463;-76
2022/03/24 08:03:36;;;;;;;74.80;48.88;;;8.70;99.90;;;;;;4969610;28;20117;-75
2022/03/24 08:06:02;;;;;;;77.00;49.25;;;8.80;99.90;;;;;;4978463;28;20137;-75
2022/03/24 08:08:28;;;;;;;74.53;49.05;;;8.90;99.90;;;;;;4995669;28;20049;-74
2022/03/24 08:10:54;;;;;;;80.05;50.13;;;9.10;99.90;;;;;;4962600;28;20060;-76
2022/03/24 08:13:21;;;;;;;73.32;49.47;;;9.20;99.90;;;;;;4995579;28;20054;-74
2022/03/24 08:15:48;;;;;;;75.68;49.67;;;9.30;99.90;;;;;;4978808;28;20046;-75
2022/03/24 08:18:14;;;;;;;77.55;50.90;;;9.30;99.90;;;;;;4956874;28;20136;-74
2022/03/24 08:20:42;;;;;;;74.93;50.25;;;9.40;99.90;;;;;;4962439;28;20078;-74
2022/03/24 08:23:08;;;;;;;67.55;44.33;;;9.50;99.90;;;;;;4978818;28;20046;-74
2022/03/24 08:25:34;;;;;;;65.28;44.22;;;9.60;99.90;;;;;;4995464;28;20057;-74
2022/03/24 08:28:00;;;;;;;71.20;47.42;;;9.70;99.90;;;;;;4995529;28;20175;-74
2022/03/24 08:30:26;;;;;;;69.93;43.92;;;9.80;99.90;;;;;;4978382;28;20107;-75
2022/03/24 08:32:51;;;;;;;58.65;40.45;;;10.00;99.90;;;;;;4973075;28;20122;-77
2022/03/24 08:35:17;;;;;;;63.25;39.20;;;10.10;99.90;;;;;;4967611;28;20368;-75
2022/03/24 08:37:43;;;;;;;55.28;37.40;;;10.30;99.90;;;;;;4978401;28;20486;-75
2022/03/24 08:40:10;;;;;;;55.92;37.95;;;10.20;99.90;;;;;;4978292;28;20046;-77
2022/03/24 08:42:37;;;;;;;58.30;40.08;;;10.30;99.90;;;;;;4995569;28;20084;-77
2022/03/24 08:45:09;;;;;;;58.10;39.05;;;10.40;99.90;;;;;;4992510;28;20050;-77
2022/03/24 08:47:34;;;;;;;57.55;39.85;;;10.50;99.90;;;;;;4978589;28;20462;-75
2022/03/24 08:50:00;;;;;;;61.92;40.55;;;10.60;99.90;;;;;;4995268;28;20050;-77
2022/03/24 08:52:27;;;;;;;62.70;40.25;;;10.60;99.90;;;;;;4978573;28;20046;-76
2022/03/24 08:54:54;;;;;;;55.95;39.47;;;10.80;99.90;;;;;;4978026;28;20035;-74
2022/03/24 08:57:26;;;;;;;64.50;40.45;;;10.90;99.90;;;;;;4961932;28;20043;-75
2022/03/24 08:59:53;;;;;;;62.88;40.47;;;11.20;99.90;;;;;;4977907;28;20074;-76
2022/03/24 09:02:19;;;;;;;60.72;41.20;;;11.10;99.90;;;;;;4961684;28;20042;-76
2022/03/24 09:04:44;;;;;;;59.08;40.60;;;11.30;99.90;;;;;;4973281;28;20154;-76
2022/03/24 09:07:10;;;;;;;58.03;39.30;;;11.40;99.90;;;;;;4972569;28;20471;-77
2022/03/24 09:09:35;;;;;;;57.88;39.72;;;11.50;99.90;;;;;;4961862;28;20057;-76
2022/03/24 09:12:01;;;;;;;57.67;40.22;;;11.70;99.90;;;;;;4965289;28;20069;-73
2022/03/24 09:14:26;;;;;;;60.28;38.55;;;11.70;99.90;;;;;;4997683;28;20096;-74
2022/03/24 09:16:52;;;;;;;64.15;38.60;;;11.90;99.90;;;;;;4981529;28;20117;-74
2022/03/24 09:19:18;;;;;;;60.22;36.65;;;12.00;99.90;;;;;;4981350;28;20352;-74
2022/03/24 09:21:43;;;;;;;64.32;37.22;;;12.10;99.90;;;;;;4981608;28;20042;-76
2022/03/24 09:24:09;;;;;;;60.20;38.30;;;12.10;99.90;;;;;;4978737;28;20051;-74
2022/03/24 09:26:37;;;;;;;63.30;38.67;;;12.20;99.90;;;;;;4981793;28;20053;-76
2022/03/24 09:29:03;;;;;;;54.63;35.40;;;12.30;99.90;;;;;;4998821;28;20056;-74
2022/03/24 09:31:29;;;;;;;56.72;36.80;;;12.30;99.90;;;;;;4977160;28;20046;-74
2022/03/24 09:33:54;;;;;;;58.55;38.42;;;12.40;99.90;;;;;;4968902;28;20193;-77
2022/03/24 09:36:20;;;;;;;57.42;36.42;;;12.70;99.90;;;;;;4961737;28;20035;-75
2022/03/24 09:38:45;;;;;;;53.42;37.38;;;12.60;99.90;;;;;;4946345;28;20055;-75
2022/03/24 09:41:13;;;;;;;60.92;38.65;;;12.70;99.90;;;;;;4962235;28;20050;-75
2022/03/24 09:43:41;;;;;;;64.07;36.88;;;12.80;99.90;;;;;;4978986;28;20043;-75
2022/03/24 09:46:07;;;;;;;55.30;37.38;;;12.90;99.90;;;;;;4980086;28;20043;-75
2022/03/24 09:48:33;;;;;;;60.83;37.83;;;13.00;99.90;;;;;;4978557;28;20519;-75
2022/03/24 09:50:58;;;;;;;56.42;34.67;;;13.10;99.90;;;;;;4977933;28;20125;-74
2022/03/24 09:53:24;;;;;;;58.00;36.53;;;13.30;99.90;;;;;;4961916;28;20047;-76
2022/03/24 09:55:50;;;;;;;63.65;38.65;;;13.20;99.90;;;;;;4978742;28;20046;-77
2022/03/24 09:58:16;;;;;;;57.50;37.58;;;13.30;99.90;;;;;;4977855;28;20531;-76
2022/03/24 10:00:42;;;;;;;61.50;38.13;;;13.40;99.90;;;;;;4997568;28;20078;-75
2022/03/24 10:03:17;;;;;;;62.17;36.90;;;13.40;99.90;;;;;;4980859;28;20043;-76
2022/03/24 10:05:59;;;;;;;59.45;37.13;;;13.50;99.90;;;;;;4981083;28;20049;-76
2022/03/24 10:08:29;;;;;;;56.03;36.70;;;13.60;99.90;;;;;;4948838;28;20061;-75
2022/03/24 10:11:04;;;;;;;62.17;37.35;;;13.70;99.90;;;;;;4964437;28;20058;-77
2022/03/24 10:13:51;;;;;;;59.28;37.78;;;13.70;99.90;;;;;;4980489;28;20125;-74
2022/03/24 10:16:38;;;;;;;60.72;36.45;;;13.80;99.90;;;;;;4961290;28;20486;-75
2022/03/24 10:19:05;;;;;;;51.85;35.47;;;13.90;99.90;;;;;;4961538;28;20062;-74
2022/03/24 10:21:32;;;;;;;55.58;36.15;;;14.00;99.90;;;;;;4977266;28;20043;-76
2022/03/24 10:24:00;;;;;;;57.63;34.47;;;14.10;99.90;;;;;;4961406;28;20435;-76
2022/03/24 10:27:03;;;;;;;53.78;35.83;;;14.10;99.90;;;;;;4960915;28;20062;-75
2022/03/24 10:29:31;;;;;;;53.38;35.65;;;14.20;99.90;;;;;;4937465;28;20109;-75
2022/03/24 10:32:03;;;;;;;56.00;35.75;;;14.30;99.90;;;;;;4960727;28;20433;-77
2022/03/24 10:34:34;;;;;;;57.28;36.40;;;14.30;99.90;;;;;;4996114;28;20074;-77
2022/03/24 10:37:06;;;;;;;63.58;36.58;;;14.30;99.90;;;;;;4980646;28;20067;-77
2022/03/24 10:39:32;;;;;;;56.28;36.15;;;14.50;99.90;;;;;;4964272;28;20108;-75
2022/03/24 10:42:18;;;;;;;55.97;36.80;;;14.60;99.90;;;;;;4980304;28;20058;-77
2022/03/24 10:45:09;;;;;;;52.42;34.78;;;14.90;99.90;;;;;;4993504;28;20136;-75
2022/03/24 10:47:50;;;;;;;51.65;32.88;;;14.90;99.90;;;;;;4976263;28;20047;-74
2022/03/24 10:50:32;;;;;;;57.10;36.28;;;14.90;99.90;;;;;;4960756;28;20038;-76
2022/03/24 10:53:12;;;;;;;56.53;34.58;;;15.00;99.90;;;;;;4977527;28;20039;-74
2022/03/24 10:55:44;;;;;;;52.63;34.97;;;15.10;99.90;;;;;;4960789;28;20515;-76
2022/03/24 10:58:27;;;;;;;50.33;33.70;;;15.10;99.90;;;;;;4944475;28;20050;-75
2022/03/24 11:00:57;;;;;;;62.58;37.63;;;15.20;99.90;;;;;;4977236;28;20053;-77
2022/03/24 11:03:23;;;;;;;57.42;34.30;;;15.30;99.90;;;;;;4977275;28;20154;-77
2022/03/24 11:05:49;;;;;;;52.05;35.33;;;15.30;99.90;;;;;;4977753;28;20372;-75
2022/03/24 11:08:17;;;;;;;54.35;36.55;;;15.30;99.90;;;;;;4944012;28;20047;-77
2022/03/24 11:10:48;;;;;;;45.90;31.27;;;15.40;99.90;;;;;;4960020;28;20097;-76
2022/03/24 11:13:23;;;;;;;49.95;33.15;;;15.50;99.90;;;;;;4977274;28;20050;-76
2022/03/24 11:15:51;;;;;;;59.45;35.80;;;15.50;99.90;;;;;;4977650;28;20046;-77
2022/03/24 11:18:16;;;;;;;52.97;35.67;;;15.40;99.90;;;;;;4958261;28;20061;-74
2022/03/24 11:20:43;;;;;;;56.97;36.38;;;15.60;99.90;;;;;;4976085;28;20139;-76
2022/03/24 11:23:22;;;;;;;53.63;33.80;;;15.60;99.90;;;;;;4960203;28;20046;-74
2022/03/24 11:25:48;;;;;;;55.60;33.38;;;15.70;99.90;;;;;;4943824;28;20053;-74
2022/03/24 11:28:14;;;;;;;51.55;33.53;;;15.80;99.90;;;;;;4977471;28;20129;-76
2022/03/24 11:30:41;;;;;;;50.85;32.53;;;15.90;99.90;;;;;;4960303;28;20055;-76
2022/03/24 11:33:08;;;;;;;55.03;34.45;;;15.90;99.90;;;;;;4959860;28;20097;-76
2022/03/24 11:35:35;;;;;;;45.92;30.27;;;16.00;99.90;;;;;;4977119;28;20047;-74
2022/03/24 11:38:04;;;;;;;54.20;34.25;;;16.00;99.90;;;;;;4977225;28;20061;-75
2022/03/24 11:40:32;;;;;;;51.75;34.58;;;16.00;99.90;;;;;;4976688;28;20093;-74
2022/03/24 11:43:04;;;;;;;55.88;35.03;;;16.10;99.90;;;;;;4976624;28;20038;-75
2022/03/24 11:45:50;;;;;;;52.55;32.33;;;16.10;99.90;;;;;;4959708;28;20047;-74
2022/03/24 11:48:31;;;;;;;47.92;31.95;;;16.20;99.20;;;;;;4959904;28;20098;-76
2022/03/24 11:50:56;;;;;;;52.92;33.33;;;16.20;99.80;;;;;;4959333;28;20046;-75
2022/03/24 11:53:28;;;;;;;51.13;30.33;;;16.20;99.40;;;;;;4976439;28;20058;-76
2022/03/24 11:56:11;;;;;;;54.55;33.28;;;16.30;98.90;;;;;;4976643;28;20420;-75
2022/03/24 11:59:08;;;;;;;54.97;35.73;;;16.30;99.90;;;;;;4956813;28;20093;-74
2022/03/24 12:01:35;;;;;;;61.05;35.53;;;16.40;99.80;;;;;;4995465;28;20138;-74
2022/03/24 12:04:14;;;;;;;54.78;34.35;;;16.40;99.40;;;;;;4979117;28;20117;-76
2022/03/24 12:06:46;;;;;;;51.35;33.42;;;16.50;99.60;;;;;;4959462;28;20539;-75
2022/03/24 12:09:32;;;;;;;46.67;31.90;;;16.60;99.90;;;;;;4976425;28;20057;-76
2022/03/24 12:12:04;;;;;;;52.30;30.00;;;16.70;99.60;;;;;;4974718;28;20066;-75
2022/03/24 12:14:32;;;;;;;48.80;31.50;;;16.70;98.60;;;;;;4976176;28;20109;-74
2022/03/24 12:17:05;;;;;;;49.10;32.33;;;16.70;98.60;;;;;;4975939;28;20051;-76
2022/03/24 12:19:50;;;;;;;;;;;16.80;97.80;;;;;;4959885;28;20077;-75
2022/03/24 12:22:25;;;;;;;40.58;26.98;;;16.80;97.00;;;;;;4942404;28;19925;-75
2022/03/24 12:24:51;;;;;;;43.25;30.27;;;16.90;98.10;;;;;;4975796;28;20043;-74
2022/03/24 12:27:17;;;;;;;46.63;29.27;;;17.00;95.70;;;;;;4976127;28;20038;-75
2022/03/24 12:30:09;;;;;;;51.88;28.48;;;17.00;96.20;;;;;;4976104;28;20053;-76
2022/03/24 12:32:34;;;;;;;42.50;27.20;;;17.10;95.70;;;;;;4936752;28;20085;-77
2022/03/24 12:35:00;;;;;;;45.08;27.83;;;17.10;96.70;;;;;;4962504;28;20410;-75
2022/03/24 12:37:26;;;;;;;45.97;29.25;;;17.10;96.00;;;;;;4977995;28;20125;-75